sensor_id;sensor_type;location;lat;lon;timestamp;temperature;humidity
21312;DHT22;18076;52.154;10.570;2024-02-26T00:02:13;1.50;99.90
21312;DHT22;18076;52.154;10.570;2024-02-26T00:04:39;1.50;99.90
21312;DHT22;18076;52.154;10.570;2024-02-26T00:07:05;1.50;99.90
21312;DHT22;18076;52.154;10.570;2024-02-26T00:09:30;1.50;99.90
21312;DHT22;18076;52.154;10.570;2024-02-26T00:11:56;1.50;99.90
21312;DHT22;18076;52.154;10.570;2024-02-26T00:14:23;1.50;99.90
21312;DHT22;18076;52.154;10.570;2024-02-26T00:16:48;1.50;99.90
21312;DHT22;18076;52.154;10.570;2024-02-26T00:19:14;1.50;99.90
21312;DHT22;18076;52.154;10.570;2024-02-26T00:21:40;1.50;99.90
21312;DHT22;18076;52.154;10.570;2024-02-26T00:24:06;1.50;99.90
21312;DHT22;18076;52.154;10.570;2024-02-26T00:26:32;1.50;99.90
21312;DHT22;18076;52.154;10.570;2024-02-26T00:28:57;1.50;99.90
21312;DHT22;18076;52.154;10.570;2024-02-26T00:31:23;1.50;99.90
21312;DHT22;18076;52.154;10.570;2024-02-26T00:33:48;1.50;99.90
21312;DHT22;18076;52.154;10.570;2024-02-26T00:36:14;1.50;99.90
21312;DHT22;18076;52.154;10.570;2024-02-26T00:38:39;1.40;99.90
21312;DHT22;18076;52.154;10.570;2024-02-26T00:41:05;1.50;99.90
21312;DHT22;18076;52.154;10.570;2024-02-26T00:43:31;1.50;99.90
21312;DHT22;18076;52.154;10.570;2024-02-26T00:45:56;1.40;99.90
21312;DHT22;18076;52.154;10.570;2024-02-26T00:48:22;1.40;99.90
21312;DHT22;18076;52.154;10.570;2024-02-26T00:50:47;1.40;99.90
21312;DHT22;18076;52.154;10.570;2024-02-26T00:53:13;1.40;99.90
21312;DHT22;18076;52.154;10.570;2024-02-26T00:55:38;1.30;99.90
21312;DHT22;18076;52.154;10.570;2024-02-26T00:58:04;1.40;99.90
21312;DHT22;18076;52.154;10.570;2024-02-26T01:00:30;1.30;99.90
21312;DHT22;18076;52.154;10.570;2024-02-26T01:02:55;1.40;99.90
21312;DHT22;18076;52.154;10.570;2024-02-26T01:05:22;1.40;99.90
21312;DHT22;18076;52.154;10.570;2024-02-26T01:07:47;1.30;99.90
21312;DHT22;18076;52.154;10.570;2024-02-26T01:10:13;1.20;99.90
21312;DHT22;18076;52.154;10.570;2024-02-26T01:12:38;1.20;99.90
21312;DHT22;18076;52.154;10.570;2024-02-26T01:15:05;1.20;99.90
21312;DHT22;18076;52.154;10.570;2024-02-26T01:17:31;1.20;99.90
21312;DHT22;18076;52.154;10.570;2024-02-26T01:19:56;1.30;99.90
21312;DHT22;18076;52.154;10.570;2024-02-26T01:22:22;1.30;99.90
21312;DHT22;18076;52.154;10.570;2024-02-26T01:24:47;1.20;99.90
21312;DHT22;18076;52.154;10.570;2024-02-26T01:27:13;1.20;99.90
21312;DHT22;18076;52.154;10.570;2024-02-26T01:29:41;1.20;99.90
21312;DHT22;18076;52.154;10.570;2024-02-26T01:32:06;1.20;99.90
21312;DHT22;18076;52.154;10.570;2024-02-26T01:34:32;1.20;99.90
21312;DHT22;18076;52.154;10.570;2024-02-26T01:36:58;1.10;99.90
21312;DHT22;18076;52.154;10.570;2024-02-26T01:39:23;1.10;99.90
21312;DHT22;18076;52.154;10.570;2024-02-26T01:41:49;1.10;99.90
21312;DHT22;18076;52.154;10.570;2024-02-26T01:44:14;1.00;99.90
21312;DHT22;18076;52.154;10.570;2024-02-26T01:46:40;1.00;99.90
21312;DHT22;18076;52.154;10.570;2024-02-26T01:49:05;0.90;99.90
21312;DHT22;18076;52.154;10.570;2024-02-26T01:51:32;0.90;99.90
21312;DHT22;18076;52.154;10.570;2024-02-26T01:53:58;1.00;99.90
21312;DHT22;18076;52.154;10.570;2024-02-26T01:56:25;0.90;99.90
21312;DHT22;18076;52.154;10.570;2024-02-26T01:58:55;0.90;99.90
21312;DHT22;18076;52.154;10.570;2024-02-26T02:01:22;0.90;99.90
21312;DHT22;18076;52.154;10.570;2024-02-26T02:03:49;0.90;99.90
21312;DHT22;18076;52.154;10.570;2024-02-26T02:06:15;0.90;99.90
21312;DHT22;18076;52.154;10.570;2024-02-26T02:08:40;0.90;99.90
21312;DHT22;18076;52.154;10.570;2024-02-26T02:11:07;0.80;99.90
21312;DHT22;18076;52.154;10.570;2024-02-26T02:15:59;0.90;99.90
21312;DHT22;18076;52.154;10.570;2024-02-26T02:20:50;0.80;99.90
21312;DHT22;18076;52.154;10.570;2024-02-26T02:23:16;0.80;99.90
21312;DHT22;18076;52.154;10.570;2024-02-26T02:25:42;0.90;99.90
21312;DHT22;18076;52.154;10.570;2024-02-26T02:28:07;0.90;99.90
21312;DHT22;18076;52.154;10.570;2024-02-26T02:30:33;0.90;99.90
21312;DHT22;18076;52.154;10.570;2024-02-26T02:33:00;0.90;99.90
21312;DHT22;18076;52.154;10.570;2024-02-26T02:35:26;0.80;99.90
21312;DHT22;18076;52.154;10.570;2024-02-26T02:37:52;0.90;99.90
21312;DHT22;18076;52.154;10.570;2024-02-26T02:40:18;0.90;99.90
21312;DHT22;18076;52.154;10.570;2024-02-26T02:45:11;0.90;99.90
21312;DHT22;18076;52.154;10.570;2024-02-26T02:47:37;0.90;99.90
21312;DHT22;18076;52.154;10.570;2024-02-26T02:50:05;0.90;99.90
21312;DHT22;18076;52.154;10.570;2024-02-26T02:52:31;0.90;99.90
21312;DHT22;18076;52.154;10.570;2024-02-26T02:54:57;0.90;99.90
21312;DHT22;18076;52.154;10.570;2024-02-26T02:57:23;0.90;99.90
21312;DHT22;18076;52.154;10.570;2024-02-26T02:59:48;0.90;99.90
21312;DHT22;18076;52.154;10.570;2024-02-26T03:02:14;0.90;99.90
21312;DHT22;18076;52.154;10.570;2024-02-26T03:04:39;0.90;99.90
21312;DHT22;18076;52.154;10.570;2024-02-26T03:09:31;0.90;99.90
21312;DHT22;18076;52.154;10.570;2024-02-26T03:11:56;0.90;99.90
21312;DHT22;18076;52.154;10.570;2024-02-26T03:14:22;0.90;99.90
21312;DHT22;18076;52.154;10.570;2024-02-26T03:16:48;0.90;99.90
21312;DHT22;18076;52.154;10.570;2024-02-26T03:19:14;0.80;99.90
21312;DHT22;18076;52.154;10.570;2024-02-26T03:21:40;0.80;99.90
21312;DHT22;18076;52.154;10.570;2024-02-26T03:24:05;0.90;99.90
21312;DHT22;18076;52.154;10.570;2024-02-26T03:26:31;0.80;99.90
21312;DHT22;18076;52.154;10.570;2024-02-26T03:28:57;0.80;99.90
21312;DHT22;18076;52.154;10.570;2024-02-26T03:31:22;0.80;99.90
21312;DHT22;18076;52.154;10.570;2024-02-26T03:33:48;0.80;99.90
21312;DHT22;18076;52.154;10.570;2024-02-26T03:36:13;0.80;99.90
21312;DHT22;18076;52.154;10.570;2024-02-26T03:38:39;0.80;99.90
21312;DHT22;18076;52.154;10.570;2024-02-26T03:41:05;0.80;99.90
21312;DHT22;18076;52.154;10.570;2024-02-26T03:43:31;0.80;99.90
21312;DHT22;18076;52.154;10.570;2024-02-26T03:45:57;0.80;99.90
21312;DHT22;18076;52.154;10.570;2024-02-26T03:48:22;0.80;99.90
21312;DHT22;18076;52.154;10.570;2024-02-26T03:50:48;0.80;99.90
21312;DHT22;18076;52.154;10.570;2024-02-26T03:53:13;0.80;99.90
21312;DHT22;18076;52.154;10.570;2024-02-26T03:55:39;0.80;99.90
21312;DHT22;18076;52.154;10.570;2024-02-26T03:58:07;0.80;99.90
21312;DHT22;18076;52.154;10.570;2024-02-26T04:00:32;0.80;99.90
21312;DHT22;18076;52.154;10.570;2024-02-26T04:02:58;0.80;99.90
21312;DHT22;18076;52.154;10.570;2024-02-26T04:05:23;0.80;99.90
21312;DHT22;18076;52.154;10.570;2024-02-26T04:07:49;0.80;99.90
21312;DHT22;18076;52.154;10.570;2024-02-26T04:10:14;0.80;99.90
21312;DHT22;18076;52.154;10.570;2024-02-26T04:12:40;0.80;99.90
21312;DHT22;18076;52.154;10.570;2024-02-26T04:15:07;0.90;99.90
21312;DHT22;18076;52.154;10.570;2024-02-26T04:17:33;0.90;99.90
21312;DHT22;18076;52.154;10.570;2024-02-26T04:19:58;1.00;99.90
21312;DHT22;18076;52.154;10.570;2024-02-26T04:22:24;1.10;99.90
21312;DHT22;18076;52.154;10.570;2024-02-26T04:24:49;1.00;99.90
21312;DHT22;18076;52.154;10.570;2024-02-26T04:27:15;1.00;99.90
21312;DHT22;18076;52.154;10.570;2024-02-26T04:29:40;1.00;99.90
21312;DHT22;18076;52.154;10.570;2024-02-26T04:32:06;1.00;99.90
21312;DHT22;18076;52.154;10.570;2024-02-26T04:34:31;0.90;99.90
21312;DHT22;18076;52.154;10.570;2024-02-26T04:36:57;0.90;99.90
21312;DHT22;18076;52.154;10.570;2024-02-26T04:39:22;0.90;99.90
21312;DHT22;18076;52.154;10.570;2024-02-26T04:41:48;1.00;99.90
21312;DHT22;18076;52.154;10.570;2024-02-26T04:44:13;1.00;99.90
21312;DHT22;18076;52.154;10.570;2024-02-26T04:46:39;1.00;99.90
21312;DHT22;18076;52.154;10.570;2024-02-26T04:49:04;1.20;99.90
21312;DHT22;18076;52.154;10.570;2024-02-26T04:51:31;1.20;99.90
21312;DHT22;18076;52.154;10.570;2024-02-26T04:53:56;1.30;99.90
21312;DHT22;18076;52.154;10.570;2024-02-26T04:56:22;1.30;99.90
21312;DHT22;18076;52.154;10.570;2024-02-26T04:58:47;1.30;99.90
21312;DHT22;18076;52.154;10.570;2024-02-26T05:01:13;1.30;99.90
21312;DHT22;18076;52.154;10.570;2024-02-26T05:03:41;1.30;99.90
21312;DHT22;18076;52.154;10.570;2024-02-26T05:06:06;1.30;99.90
21312;DHT22;18076;52.154;10.570;2024-02-26T05:08:32;1.40;99.90
21312;DHT22;18076;52.154;10.570;2024-02-26T05:10:59;1.40;99.90
21312;DHT22;18076;52.154;10.570;2024-02-26T05:13:25;1.40;99.90
21312;DHT22;18076;52.154;10.570;2024-02-26T05:15:51;1.40;99.90
21312;DHT22;18076;52.154;10.570;2024-02-26T05:18:17;1.40;99.90
21312;DHT22;18076;52.154;10.570;2024-02-26T05:20:43;1.40;99.90
21312;DHT22;18076;52.154;10.570;2024-02-26T05:23:09;1.40;99.90
21312;DHT22;18076;52.154;10.570;2024-02-26T05:25:34;1.40;99.90
21312;DHT22;18076;52.154;10.570;2024-02-26T05:28:00;1.40;99.90
21312;DHT22;18076;52.154;10.570;2024-02-26T05:30:25;1.40;99.90
21312;DHT22;18076;52.154;10.570;2024-02-26T05:32:53;1.40;99.90
21312;DHT22;18076;52.154;10.570;2024-02-26T05:35:19;1.40;99.90
21312;DHT22;18076;52.154;10.570;2024-02-26T05:37:44;1.50;99.90
21312;DHT22;18076;52.154;10.570;2024-02-26T05:40:10;1.50;99.90
21312;DHT22;18076;52.154;10.570;2024-02-26T05:42:36;1.50;99.90
21312;DHT22;18076;52.154;10.570;2024-02-26T05:45:01;1.50;99.90
21312;DHT22;18076;52.154;10.570;2024-02-26T05:47:34;1.50;99.90
21312;DHT22;18076;52.154;10.570;2024-02-26T05:50:00;1.50;99.90
21312;DHT22;18076;52.154;10.570;2024-02-26T05:52:28;1.50;99.90
21312;DHT22;18076;52.154;10.570;2024-02-26T05:54:57;1.50;99.90
21312;DHT22;18076;52.154;10.570;2024-02-26T05:57:22;1.60;99.90
21312;DHT22;18076;52.154;10.570;2024-02-26T05:59:48;1.60;99.90
21312;DHT22;18076;52.154;10.570;2024-02-26T06:02:13;1.60;99.90
21312;DHT22;18076;52.154;10.570;2024-02-26T06:04:39;1.60;99.90
21312;DHT22;18076;52.154;10.570;2024-02-26T06:07:04;1.60;99.90
21312;DHT22;18076;52.154;10.570;2024-02-26T06:09:30;1.60;99.90
21312;DHT22;18076;52.154;10.570;2024-02-26T06:11:56;1.70;99.90
21312;DHT22;18076;52.154;10.570;2024-02-26T06:14:21;1.90;99.90
21312;DHT22;18076;52.154;10.570;2024-02-26T06:16:47;2.10;99.90
21312;DHT22;18076;52.154;10.570;2024-02-26T06:19:13;2.20;99.90
21312;DHT22;18076;52.154;10.570;2024-02-26T06:21:38;2.30;99.90
21312;DHT22;18076;52.154;10.570;2024-02-26T06:24:04;2.30;99.90
21312;DHT22;18076;52.154;10.570;2024-02-26T06:26:30;2.30;99.90
21312;DHT22;18076;52.154;10.570;2024-02-26T06:28:55;2.30;99.90
21312;DHT22;18076;52.154;10.570;2024-02-26T06:31:21;2.30;99.90
21312;DHT22;18076;52.154;10.570;2024-02-26T06:33:48;2.30;99.90
21312;DHT22;18076;52.154;10.570;2024-02-26T06:36:13;2.30;99.90
21312;DHT22;18076;52.154;10.570;2024-02-26T06:38:39;2.30;99.90
21312;DHT22;18076;52.154;10.570;2024-02-26T06:41:05;2.20;99.90
21312;DHT22;18076;52.154;10.570;2024-02-26T06:43:30;2.20;99.90
21312;DHT22;18076;52.154;10.570;2024-02-26T06:45:56;2.30;99.90
21312;DHT22;18076;52.154;10.570;2024-02-26T06:48:23;2.30;99.90
21312;DHT22;18076;52.154;10.570;2024-02-26T06:50:48;2.40;99.90
21312;DHT22;18076;52.154;10.570;2024-02-26T06:53:14;2.30;99.90
21312;DHT22;18076;52.154;10.570;2024-02-26T06:55:39;2.40;99.90
21312;DHT22;18076;52.154;10.570;2024-02-26T06:58:06;2.40;99.90
21312;DHT22;18076;52.154;10.570;2024-02-26T07:00:32;2.40;99.90
21312;DHT22;18076;52.154;10.570;2024-02-26T07:02:57;2.40;99.90
21312;DHT22;18076;52.154;10.570;2024-02-26T07:05:23;2.50;99.90
21312;DHT22;18076;52.154;10.570;2024-02-26T07:07:49;2.50;99.90
21312;DHT22;18076;52.154;10.570;2024-02-26T07:10:14;2.60;99.90
21312;DHT22;18076;52.154;10.570;2024-02-26T07:12:40;2.60;99.90
21312;DHT22;18076;52.154;10.570;2024-02-26T07:15:05;2.70;99.90
21312;DHT22;18076;52.154;10.570;2024-02-26T07:17:33;2.70;99.90
21312;DHT22;18076;52.154;10.570;2024-02-26T07:19:59;2.80;99.90
21312;DHT22;18076;52.154;10.570;2024-02-26T07:22:25;2.80;99.90
21312;DHT22;18076;52.154;10.570;2024-02-26T07:24:50;2.90;99.90
21312;DHT22;18076;52.154;10.570;2024-02-26T07:27:17;2.90;99.90
21312;DHT22;18076;52.154;10.570;2024-02-26T07:29:43;2.90;99.90
21312;DHT22;18076;52.154;10.570;2024-02-26T07:32:08;3.00;99.90
21312;DHT22;18076;52.154;10.570;2024-02-26T07:34:34;2.90;99.90
21312;DHT22;18076;52.154;10.570;2024-02-26T07:37:00;3.00;99.90
21312;DHT22;18076;52.154;10.570;2024-02-26T07:39:26;3.00;99.90
21312;DHT22;18076;52.154;10.570;2024-02-26T07:41:51;3.00;99.90
21312;DHT22;18076;52.154;10.570;2024-02-26T07:44:18;3.00;99.90
21312;DHT22;18076;52.154;10.570;2024-02-26T07:46:44;3.00;99.90
21312;DHT22;18076;52.154;10.570;2024-02-26T07:49:09;3.10;99.90
21312;DHT22;18076;52.154;10.570;2024-02-26T07:51:35;3.10;99.90
21312;DHT22;18076;52.154;10.570;2024-02-26T07:54:00;3.20;99.90
21312;DHT22;18076;52.154;10.570;2024-02-26T07:56:26;3.30;99.90
21312;DHT22;18076;52.154;10.570;2024-02-26T07:58:52;3.30;99.90
21312;DHT22;18076;52.154;10.570;2024-02-26T08:01:17;3.30;99.90
21312;DHT22;18076;52.154;10.570;2024-02-26T08:03:43;3.30;99.90
21312;DHT22;18076;52.154;10.570;2024-02-26T08:06:08;3.40;99.90
21312;DHT22;18076;52.154;10.570;2024-02-26T08:08:34;3.40;99.90
21312;DHT22;18076;52.154;10.570;2024-02-26T08:10:59;3.40;99.90
21312;DHT22;18076;52.154;10.570;2024-02-26T08:13:25;3.40;99.90
21312;DHT22;18076;52.154;10.570;2024-02-26T08:15:51;3.50;99.90
21312;DHT22;18076;52.154;10.570;2024-02-26T08:18:17;3.50;99.90
21312;DHT22;18076;52.154;10.570;2024-02-26T08:20:42;3.60;99.90
21312;DHT22;18076;52.154;10.570;2024-02-26T08:23:08;3.70;99.90
21312;DHT22;18076;52.154;10.570;2024-02-26T08:25:33;3.70;99.90
21312;DHT22;18076;52.154;10.570;2024-02-26T08:27:59;3.80;99.90
21312;DHT22;18076;52.154;10.570;2024-02-26T08:30:24;3.80;99.90
21312;DHT22;18076;52.154;10.570;2024-02-26T08:32:50;3.90;99.90
21312;DHT22;18076;52.154;10.570;2024-02-26T08:35:16;3.90;99.90
21312;DHT22;18076;52.154;10.570;2024-02-26T08:37:45;4.00;99.90
21312;DHT22;18076;52.154;10.570;2024-02-26T08:40:11;4.00;99.90
21312;DHT22;18076;52.154;10.570;2024-02-26T08:42:37;4.10;99.90
21312;DHT22;18076;52.154;10.570;2024-02-26T08:45:02;4.20;99.90
21312;DHT22;18076;52.154;10.570;2024-02-26T08:47:28;4.20;99.90
21312;DHT22;18076;52.154;10.570;2024-02-26T08:49:53;4.30;99.90
21312;DHT22;18076;52.154;10.570;2024-02-26T08:52:19;4.40;99.90
21312;DHT22;18076;52.154;10.570;2024-02-26T08:54:45;4.50;99.90
21312;DHT22;18076;52.154;10.570;2024-02-26T08:57:10;4.60;99.90
21312;DHT22;18076;52.154;10.570;2024-02-26T08:59:36;4.50;99.90
21312;DHT22;18076;52.154;10.570;2024-02-26T09:02:01;4.60;99.90
21312;DHT22;18076;52.154;10.570;2024-02-26T09:04:27;4.70;99.90
21312;DHT22;18076;52.154;10.570;2024-02-26T09:06:53;4.70;99.90
21312;DHT22;18076;52.154;10.570;2024-02-26T09:09:19;4.80;99.90
21312;DHT22;18076;52.154;10.570;2024-02-26T09:11:45;4.90;99.90
21312;DHT22;18076;52.154;10.570;2024-02-26T09:14:10;5.00;99.90
21312;DHT22;18076;52.154;10.570;2024-02-26T09:16:36;5.20;99.90
21312;DHT22;18076;52.154;10.570;2024-02-26T09:19:01;5.30;99.90
21312;DHT22;18076;52.154;10.570;2024-02-26T09:21:28;5.40;99.90
21312;DHT22;18076;52.154;10.570;2024-02-26T09:23:53;5.50;99.90
21312;DHT22;18076;52.154;10.570;2024-02-26T09:26:19;5.60;99.90
21312;DHT22;18076;52.154;10.570;2024-02-26T09:28:45;5.70;99.90
21312;DHT22;18076;52.154;10.570;2024-02-26T09:31:10;5.70;99.90
21312;DHT22;18076;52.154;10.570;2024-02-26T09:33:36;5.80;99.90
21312;DHT22;18076;52.154;10.570;2024-02-26T09:36:02;5.90;99.90
21312;DHT22;18076;52.154;10.570;2024-02-26T09:38:28;5.90;99.90
21312;DHT22;18076;52.154;10.570;2024-02-26T09:40:58;5.90;99.90
21312;DHT22;18076;52.154;10.570;2024-02-26T09:43:24;6.00;99.90
21312;DHT22;18076;52.154;10.570;2024-02-26T09:45:54;6.00;99.90
21312;DHT22;18076;52.154;10.570;2024-02-26T09:48:20;6.00;99.90
21312;DHT22;18076;52.154;10.570;2024-02-26T09:50:47;6.00;99.90
21312;DHT22;18076;52.154;10.570;2024-02-26T09:53:13;6.10;99.90
21312;DHT22;18076;52.154;10.570;2024-02-26T09:55:40;6.10;99.90
21312;DHT22;18076;52.154;10.570;2024-02-26T09:58:06;6.20;99.90
21312;DHT22;18076;52.154;10.570;2024-02-26T10:00:32;6.20;99.90
21312;DHT22;18076;52.154;10.570;2024-02-26T10:03:04;6.20;99.90
21312;DHT22;18076;52.154;10.570;2024-02-26T10:05:31;6.20;99.90
21312;DHT22;18076;52.154;10.570;2024-02-26T10:07:57;6.30;99.90
21312;DHT22;18076;52.154;10.570;2024-02-26T10:10:23;6.30;99.90
21312;DHT22;18076;52.154;10.570;2024-02-26T10:12:48;6.40;99.90
21312;DHT22;18076;52.154;10.570;2024-02-26T10:15:14;6.40;99.90
21312;DHT22;18076;52.154;10.570;2024-02-26T10:17:39;6.50;99.90
21312;DHT22;18076;52.154;10.570;2024-02-26T10:20:12;6.60;99.90
21312;DHT22;18076;52.154;10.570;2024-02-26T10:22:38;6.50;99.90
21312;DHT22;18076;52.154;10.570;2024-02-26T10:25:04;6.30;99.90
21312;DHT22;18076;52.154;10.570;2024-02-26T10:27:29;6.30;99.90
21312;DHT22;18076;52.154;10.570;2024-02-26T10:29:56;6.30;99.90
21312;DHT22;18076;52.154;10.570;2024-02-26T10:32:22;6.30;99.90
21312;DHT22;18076;52.154;10.570;2024-02-26T10:34:47;6.30;99.90
21312;DHT22;18076;52.154;10.570;2024-02-26T10:37:13;6.30;99.90
21312;DHT22;18076;52.154;10.570;2024-02-26T10:39:39;6.30;99.90
21312;DHT22;18076;52.154;10.570;2024-02-26T10:42:12;6.40;99.90
21312;DHT22;18076;52.154;10.570;2024-02-26T10:44:39;6.40;99.90
21312;DHT22;18076;52.154;10.570;2024-02-26T10:47:05;6.40;99.90
21312;DHT22;18076;52.154;10.570;2024-02-26T10:49:32;6.40;99.90
21312;DHT22;18076;52.154;10.570;2024-02-26T10:51:58;6.50;99.90
21312;DHT22;18076;52.154;10.570;2024-02-26T10:54:25;6.50;99.90
21312;DHT22;18076;52.154;10.570;2024-02-26T10:56:52;6.60;99.90
21312;DHT22;18076;52.154;10.570;2024-02-26T10:59:18;6.70;99.90
21312;DHT22;18076;52.154;10.570;2024-02-26T11:01:47;6.80;99.90
21312;DHT22;18076;52.154;10.570;2024-02-26T11:04:12;6.60;99.90
21312;DHT22;18076;52.154;10.570;2024-02-26T11:06:38;6.60;99.90
21312;DHT22;18076;52.154;10.570;2024-02-26T11:09:04;6.50;99.90
21312;DHT22;18076;52.154;10.570;2024-02-26T11:11:33;6.50;99.90
21312;DHT22;18076;52.154;10.570;2024-02-26T11:14:00;6.50;99.90
21312;DHT22;18076;52.154;10.570;2024-02-26T11:16:26;6.60;99.90
21312;DHT22;18076;52.154;10.570;2024-02-26T11:18:53;6.70;99.90
21312;DHT22;18076;52.154;10.570;2024-02-26T11:21:21;6.80;99.90
21312;DHT22;18076;52.154;10.570;2024-02-26T11:23:56;6.80;99.90
21312;DHT22;18076;52.154;10.570;2024-02-26T11:26:21;6.80;99.90
21312;DHT22;18076;52.154;10.570;2024-02-26T11:28:47;6.90;99.90
21312;DHT22;18076;52.154;10.570;2024-02-26T11:31:13;6.90;99.90
21312;DHT22;18076;52.154;10.570;2024-02-26T11:33:39;6.90;99.90
21312;DHT22;18076;52.154;10.570;2024-02-26T11:36:09;6.90;99.90
21312;DHT22;18076;52.154;10.570;2024-02-26T11:38:35;7.00;99.90
21312;DHT22;18076;52.154;10.570;2024-02-26T11:41:01;7.00;99.90
21312;DHT22;18076;52.154;10.570;2024-02-26T11:46:29;7.10;99.90
21312;DHT22;18076;52.154;10.570;2024-02-26T11:48:56;7.00;99.90
21312;DHT22;18076;52.154;10.570;2024-02-26T11:51:33;6.90;99.90
21312;DHT22;18076;52.154;10.570;2024-02-26T11:53:59;7.00;99.90
21312;DHT22;18076;52.154;10.570;2024-02-26T11:56:25;6.90;99.90
21312;DHT22;18076;52.154;10.570;2024-02-26T11:59:04;6.90;99.90
21312;DHT22;18076;52.154;10.570;2024-02-26T12:04:27;7.00;99.90
21312;DHT22;18076;52.154;10.570;2024-02-26T12:06:58;7.20;99.90
21312;DHT22;18076;52.154;10.570;2024-02-26T12:09:32;7.20;99.90
21312;DHT22;18076;52.154;10.570;2024-02-26T12:11:57;7.20;99.90
21312;DHT22;18076;52.154;10.570;2024-02-26T12:14:26;7.20;99.90
21312;DHT22;18076;52.154;10.570;2024-02-26T12:16:52;7.40;99.90
21312;DHT22;18076;52.154;10.570;2024-02-26T12:19:18;7.40;99.90
21312;DHT22;18076;52.154;10.570;2024-02-26T12:21:44;7.40;99.90
21312;DHT22;18076;52.154;10.570;2024-02-26T12:24:10;7.50;99.90
21312;DHT22;18076;52.154;10.570;2024-02-26T12:26:36;7.50;99.90
21312;DHT22;18076;52.154;10.570;2024-02-26T12:29:02;7.60;99.90
21312;DHT22;18076;52.154;10.570;2024-02-26T12:31:27;7.60;99.90
21312;DHT22;18076;52.154;10.570;2024-02-26T12:33:54;7.50;99.90
21312;DHT22;18076;52.154;10.570;2024-02-26T12:36:20;7.60;99.90
21312;DHT22;18076;52.154;10.570;2024-02-26T12:38:46;7.60;99.90
21312;DHT22;18076;52.154;10.570;2024-02-26T12:41:11;7.70;99.90
21312;DHT22;18076;52.154;10.570;2024-02-26T12:43:37;7.70;99.90
21312;DHT22;18076;52.154;10.570;2024-02-26T12:46:03;7.70;99.90
21312;DHT22;18076;52.154;10.570;2024-02-26T12:48:29;7.80;99.90
21312;DHT22;18076;52.154;10.570;2024-02-26T12:50:54;8.00;99.90
21312;DHT22;18076;52.154;10.570;2024-02-26T12:53:21;8.10;99.90
21312;DHT22;18076;52.154;10.570;2024-02-26T12:55:47;8.30;99.90
21312;DHT22;18076;52.154;10.570;2024-02-26T12:58:13;8.40;99.90
21312;DHT22;18076;52.154;10.570;2024-02-26T13:00:39;8.60;99.90
21312;DHT22;18076;52.154;10.570;2024-02-26T13:03:06;8.70;99.90
21312;DHT22;18076;52.154;10.570;2024-02-26T13:05:31;8.80;99.90
21312;DHT22;18076;52.154;10.570;2024-02-26T13:07:58;8.90;99.90
21312;DHT22;18076;52.154;10.570;2024-02-26T13:10:23;9.00;99.90
21312;DHT22;18076;52.154;10.570;2024-02-26T13:12:50;9.00;99.90
21312;DHT22;18076;52.154;10.570;2024-02-26T13:15:17;9.10;99.90
21312;DHT22;18076;52.154;10.570;2024-02-26T13:17:44;9.10;99.90
21312;DHT22;18076;52.154;10.570;2024-02-26T13:20:09;8.90;99.90
21312;DHT22;18076;52.154;10.570;2024-02-26T13:22:38;8.80;99.90
21312;DHT22;18076;52.154;10.570;2024-02-26T13:25:04;8.80;99.90
21312;DHT22;18076;52.154;10.570;2024-02-26T13:27:32;8.80;99.90
21312;DHT22;18076;52.154;10.570;2024-02-26T13:30:05;8.70;99.90
21312;DHT22;18076;52.154;10.570;2024-02-26T13:32:34;8.60;99.90
21312;DHT22;18076;52.154;10.570;2024-02-26T13:35:04;8.60;99.90
21312;DHT22;18076;52.154;10.570;2024-02-26T13:37:30;8.60;99.90
21312;DHT22;18076;52.154;10.570;2024-02-26T13:39:55;8.40;99.90
21312;DHT22;18076;52.154;10.570;2024-02-26T13:42:21;8.40;99.90
21312;DHT22;18076;52.154;10.570;2024-02-26T13:44:46;8.30;99.90
21312;DHT22;18076;52.154;10.570;2024-02-26T13:47:12;8.20;99.90
21312;DHT22;18076;52.154;10.570;2024-02-26T13:49:37;8.10;99.90
21312;DHT22;18076;52.154;10.570;2024-02-26T13:52:03;8.10;99.90
21312;DHT22;18076;52.154;10.570;2024-02-26T13:54:28;8.00;99.90
21312;DHT22;18076;52.154;10.570;2024-02-26T13:56:54;8.00;99.90
21312;DHT22;18076;52.154;10.570;2024-02-26T13:59:19;8.00;99.90
21312;DHT22;18076;52.154;10.570;2024-02-26T14:01:45;7.90;99.90
21312;DHT22;18076;52.154;10.570;2024-02-26T14:04:10;7.90;99.90
21312;DHT22;18076;52.154;10.570;2024-02-26T14:06:36;7.90;99.90
21312;DHT22;18076;52.154;10.570;2024-02-26T14:09:01;7.90;99.90
21312;DHT22;18076;52.154;10.570;2024-02-26T14:11:29;7.90;99.90
21312;DHT22;18076;52.154;10.570;2024-02-26T14:13:54;7.90;99.90
21312;DHT22;18076;52.154;10.570;2024-02-26T14:16:20;7.90;99.90
21312;DHT22;18076;52.154;10.570;2024-02-26T14:18:45;7.90;99.90
21312;DHT22;18076;52.154;10.570;2024-02-26T14:21:12;7.90;99.90
21312;DHT22;18076;52.154;10.570;2024-02-26T14:23:37;7.90;99.90
21312;DHT22;18076;52.154;10.570;2024-02-26T14:26:04;7.90;99.90
21312;DHT22;18076;52.154;10.570;2024-02-26T14:28:29;7.90;99.90
21312;DHT22;18076;52.154;10.570;2024-02-26T14:30:55;7.90;99.90
21312;DHT22;18076;52.154;10.570;2024-02-26T14:33:20;8.10;99.90
21312;DHT22;18076;52.154;10.570;2024-02-26T14:35:46;8.20;99.90
21312;DHT22;18076;52.154;10.570;2024-02-26T14:38:11;8.20;99.90
21312;DHT22;18076;52.154;10.570;2024-02-26T14:40:37;8.30;99.90
21312;DHT22;18076;52.154;10.570;2024-02-26T14:43:02;8.30;99.90
21312;DHT22;18076;52.154;10.570;2024-02-26T14:45:29;8.40;99.90
21312;DHT22;18076;52.154;10.570;2024-02-26T14:47:55;8.40;99.90
21312;DHT22;18076;52.154;10.570;2024-02-26T14:50:20;8.40;99.90
21312;DHT22;18076;52.154;10.570;2024-02-26T14:52:46;8.40;99.90
21312;DHT22;18076;52.154;10.570;2024-02-26T14:55:12;8.50;99.90
21312;DHT22;18076;52.154;10.570;2024-02-26T14:57:37;8.50;99.90
21312;DHT22;18076;52.154;10.570;2024-02-26T15:00:03;8.40;99.90
21312;DHT22;18076;52.154;10.570;2024-02-26T15:02:30;8.50;99.90
21312;DHT22;18076;52.154;10.570;2024-02-26T15:04:56;8.40;99.90
21312;DHT22;18076;52.154;10.570;2024-02-26T15:07:22;8.40;99.90
21312;DHT22;18076;52.154;10.570;2024-02-26T15:09:47;8.30;99.90
21312;DHT22;18076;52.154;10.570;2024-02-26T15:12:13;8.30;99.90
21312;DHT22;18076;52.154;10.570;2024-02-26T15:14:38;8.30;99.90
21312;DHT22;18076;52.154;10.570;2024-02-26T15:17:04;8.30;99.90
21312;DHT22;18076;52.154;10.570;2024-02-26T15:19:30;8.20;99.90
21312;DHT22;18076;52.154;10.570;2024-02-26T15:21:55;8.10;99.90
21312;DHT22;18076;52.154;10.570;2024-02-26T15:24:21;8.10;99.90
21312;DHT22;18076;52.154;10.570;2024-02-26T15:26:46;8.00;99.90
21312;DHT22;18076;52.154;10.570;2024-02-26T15:29:12;8.00;99.90
21312;DHT22;18076;52.154;10.570;2024-02-26T15:31:37;8.10;99.90
21312;DHT22;18076;52.154;10.570;2024-02-26T15:34:03;8.10;99.90
21312;DHT22;18076;52.154;10.570;2024-02-26T15:36:29;8.00;99.90
21312;DHT22;18076;52.154;10.570;2024-02-26T15:38:55;8.10;99.90